FMEEVRMM

Guest
Details From FMEE - St Denis Gillot
To VRMM - Male Intl
Flight Number -
Tags Generated
Created
Modified
Stats Distance 1,843 nm / 3,414 km
Max Altitude 0 ft / 0 m
Waypoints 3
Social Downloads 2
Likes 0
Share VATSIM

Download

Looking for another format? Having issues loading an existing format? Contact us
Advertisement - Login to hide

Notes

Generated

Route

FMEE MLE20 VRMM

ID Type Via Altitude Latitude Longitude Leg Dist Tot Dist Heading (true) Name
O FMEE APT - 0 ft / 0 m -20.88418˚ 55.50412˚ - 0 nm - -
MLE20 FIX - 0 ft / 0 m 4.11308˚ 73.47040˚ 1836 nm 1836 nm 37° / 35° -
O VRMM APT - 0 ft / 0 m 4.20629˚ 73.52889˚ 6 nm 1843 nm 32° / 32° -

Altitude Profile

Advertisement - Login to hide

Weather


0- 5 10 15 20 25 30 35+ Temperature / ° C

Clouds and Precipitation
Forecast for 2017-12-14 00:00 UTC. Updated 2 hours ago

Ground ~20,000 ft ~40,000 ft Winds

FMEE

Details ICAO FMEE (RUN)
Name St Denis Gillot
Region Comoros, Mayotte, Réunion and Madagascar
Timezone Indian/Reunion (UTC+4.0)
Stats Elevation 66 ft / 20 m (AMSL)
Location -20.889313° 55.517752°
Runways 2
Magnetic Variation 18.981° W

METAR

FMEE 132300Z AUTO 10008KT 080V140 CAVOK 25/18 Q1015 TEMPO 4000 SHRA SCT020TCU

Decode

TAF

TAF FMEE 131700Z 1318/1424 14010KT 9999 FEW110 TEMPO 1318/1403 4000 SHRA SCT020TCU BECMG 1403/1405 09015G25KT SCT025 BECMG 1416/1418 14010KT TEMPO 1418/1424 4000 SHRA BKN020TCU

Decode

Departure Runways

ID Width Length Bearing (true) Bearing (mag) Surface Threshold Offset Overrun Length
12 148 ft / 45 m 10,581 ft / 3,225 m 102.26° 121.24° Asphalt 397 ft / 121 m 148 ft / 45 m
14 148 ft / 45 m 8,842 ft / 2,695 m 116.55° 135.53° Asphalt 338 ft / 103 m 98 ft / 30 m
30 148 ft / 45 m 10,581 ft / 3,225 m 282.25° 301.23° Asphalt 0 ft / 0 m 0 ft / 0 m
32 148 ft / 45 m 8,842 ft / 2,695 m 296.54° 315.52° Asphalt 1,175 ft / 358 m 377 ft / 115 m

VRMM

Details ICAO VRMM (MLE)
Name MALE INTL
Region Maldives
Timezone Indian/Maldives (UTC+5.0)
Stats Elevation 6 ft / 2 m (AMSL)
Location 4.191832° 73.529128°
Runways 1
Magnetic Variation 2.834° W

METAR

VRMM 132200Z VRB01KT 9999 FEW018 28/24 Q1011 NOSIG

Decode

TAF

TAF VRMM 131700Z 1318/1424 35005KT 9999 FEW019

Decode

Destination Runways

ID Width Length Bearing (true) Bearing (mag) Surface Threshold Offset Overrun Length
18 148 ft / 45 m 10,556 ft / 3,218 m 179.06° 181.89° Asphalt 328 ft / 100 m 201 ft / 61 m
36 148 ft / 45 m 10,556 ft / 3,218 m 359.06° 1.89° Asphalt 952 ft / 290 m 238 ft / 73 m

Approach Navaids

Runway Type Ident Frequency Range Bearing (true) Bearing (mag) Slope Elevation
36 Localiser IML 108.70 MHz 18 nm / 33 km 359.58° 2.41° - 5 ft / 2 m (AMSL)
36 Glidescope IML 108.70 MHz 10 nm / 19 km 359.06° 1.89° 3.00° 5 ft / 2 m (AMSL)
36 DME IML 108.70 MHz 18 nm / 33 km - - - 22 ft / 7 m (AMSL)

Popular Alternatives